CheckWX is a tool to help pilots better visualize weather data.  It is not intended as a substitute for an official pre-flight weather briefing.

16:27:40 UTC

KCCA METAR
Clinton Municipal Airport
Clinton, Arkansas, USA
Current

13 mins ago

KCCA 051615Z AUTO 00000KT 10SM OVC036 14/11 A3013 RMK AO2
Observed
Apr-5 @ 16:15 UTC
Visibility
Flight Rules
VFR
Cloud Levels
  • Overcast at 3,600' AGL
Temperature
14°C / 57°F
Dewpoint
11°C / 52°F
Humidity
82%
Altimeter
30.13" Hg
Pressure
1020.32 hPa
Previous

33 mins ago

KCCA 051555Z AUTO 00000KT 10SM OVC035 14/11 A3014 RMK AO2
Observed
Apr-5 @ 15:55 UTC
Visibility
Flight Rules
VFR
Cloud Levels
  • Overcast at 3,500' AGL
Temperature
14°C / 57°F
Dewpoint
11°C / 52°F
Humidity
82%
Altimeter
30.14" Hg
Pressure
1020.62 hPa
Previous

53 mins ago

KCCA 051535Z AUTO 00000KT 9SM OVC036 14/10 A3014 RMK AO2
Observed
Apr-5 @ 15:35 UTC
Visibility
Flight Rules
VFR
Cloud Levels
  • Overcast at 3,600' AGL
Temperature
14°C / 57°F
Dewpoint
10°C / 50°F
Humidity
77%
Altimeter
30.14" Hg
Pressure
1020.62 hPa